createdAt,value
2023-05-23T00:01:10.109Z,17.44
2023-05-23T00:03:37.499Z,17.45
2023-05-23T00:06:06.960Z,17.47
2023-05-23T00:08:33.657Z,17.49
2023-05-23T00:11:00.279Z,17.51
2023-05-23T00:13:27.051Z,17.52
2023-05-23T00:15:53.637Z,17.51
2023-05-23T00:18:20.188Z,17.50
2023-05-23T00:20:47.095Z,17.47
2023-05-23T00:23:20.897Z,17.45
2023-05-23T00:25:53.440Z,17.44
2023-05-23T00:28:20.298Z,17.43
2023-05-23T00:30:46.935Z,17.43
2023-05-23T00:33:14.591Z,17.41
2023-05-23T00:35:43.995Z,17.41
2023-05-23T00:38:11.635Z,17.41
2023-05-23T00:40:38.445Z,17.41
2023-05-23T00:43:05.020Z,17.38
2023-05-23T00:45:31.735Z,17.36
2023-05-23T00:48:00.219Z,17.36
2023-05-23T00:50:30.817Z,17.38
2023-05-23T00:53:00.571Z,17.34
2023-05-23T00:55:28.505Z,17.34
2023-05-23T00:57:58.167Z,17.33
2023-05-23T01:00:26.093Z,17.32
2023-05-23T01:02:53.566Z,17.32
2023-05-23T01:05:22.607Z,17.32
2023-05-23T01:07:50.430Z,17.33
2023-05-23T01:10:21.266Z,17.31
2023-05-23T01:13:21.368Z,17.32
2023-05-23T01:15:56.796Z,17.31
2023-05-23T01:18:38.293Z,17.28
2023-05-23T01:21:17.723Z,17.29
2023-05-23T01:23:50.126Z,17.28
2023-05-23T01:26:28.534Z,17.27
2023-05-23T01:29:05.776Z,17.27
2023-05-23T01:31:35.330Z,17.24
2023-05-23T01:34:03.750Z,17.26
2023-05-23T01:36:35.320Z,17.22
2023-05-23T01:39:02.280Z,17.21
2023-05-23T01:41:28.825Z,17.20
2023-05-23T01:43:56.231Z,17.21
2023-05-23T01:46:24.175Z,17.23
2023-05-23T01:48:51.103Z,17.25
2023-05-23T01:51:17.727Z,17.27
2023-05-23T01:53:44.404Z,17.27
2023-05-23T01:56:11.008Z,17.26
2023-05-23T01:58:37.754Z,17.29
2023-05-23T02:01:04.546Z,17.30
2023-05-23T02:03:31.279Z,17.32
2023-05-23T02:05:57.815Z,17.32
2023-05-23T02:08:24.412Z,17.31
2023-05-23T02:10:52.018Z,17.29
2023-05-23T02:13:18.806Z,17.28
2023-05-23T02:15:45.361Z,17.26
2023-05-23T02:18:12.010Z,17.22
2023-05-23T02:20:38.623Z,17.22
2023-05-23T02:23:05.262Z,17.22
2023-05-23T02:25:31.841Z,17.20
2023-05-23T02:27:58.380Z,17.19
2023-05-23T02:30:24.901Z,17.18
2023-05-23T02:32:51.774Z,17.19
2023-05-23T02:35:18.329Z,17.19
2023-05-23T02:37:44.848Z,17.18
2023-05-23T02:40:12.272Z,17.15
2023-05-23T02:42:38.798Z,17.14
2023-05-23T02:45:06.124Z,17.12
2023-05-23T02:47:32.673Z,17.12
2023-05-23T02:49:59.216Z,17.12
2023-05-23T02:52:25.964Z,17.12
2023-05-23T02:54:52.476Z,17.11
2023-05-23T02:57:18.980Z,17.10
2023-05-23T02:59:45.597Z,17.11
2023-05-23T03:02:12.349Z,17.11
2023-05-23T03:04:39.060Z,17.10
2023-05-23T03:07:11.503Z,17.08
2023-05-23T03:09:43.628Z,17.08
2023-05-23T03:12:10.339Z,17.08
2023-05-23T03:14:36.863Z,17.07
2023-05-23T03:17:04.064Z,17.06
2023-05-23T03:19:31.594Z,17.06
2023-05-23T03:21:59.111Z,17.04
2023-05-23T03:24:25.984Z,17.05
2023-05-23T03:26:52.527Z,17.06
2023-05-23T03:29:19.014Z,17.07
2023-05-23T03:31:45.530Z,17.06
2023-05-23T03:34:12.998Z,17.07
2023-05-23T03:36:40.045Z,17.09
2023-05-23T03:39:06.612Z,17.12
2023-05-23T03:41:33.154Z,17.14
2023-05-23T03:44:00.863Z,17.16
2023-05-23T03:46:27.486Z,17.15
2023-05-23T03:48:54.095Z,17.14
2023-05-23T03:51:20.876Z,17.15
2023-05-23T03:53:47.391Z,17.14
2023-05-23T03:56:14.035Z,17.11
2023-05-23T03:58:40.515Z,17.08
2023-05-23T04:01:07.026Z,17.06
2023-05-23T04:03:33.692Z,17.05
2023-05-23T04:06:00.986Z,17.05
2023-05-23T04:08:29.333Z,17.03
2023-05-23T04:10:56.132Z,17.03
2023-05-23T04:13:24.839Z,17.05
2023-05-23T04:15:52.565Z,17.02
2023-05-23T04:18:19.073Z,17.01
2023-05-23T04:20:46.629Z,17.01
2023-05-23T04:23:13.020Z,17.00
2023-05-23T04:25:39.815Z,17.00
2023-05-23T04:28:06.627Z,16.98
2023-05-23T04:30:33.424Z,16.98
2023-05-23T04:33:00.130Z,16.97
2023-05-23T04:35:29.691Z,16.98
2023-05-23T04:37:56.809Z,16.97
2023-05-23T04:40:24.322Z,16.99
2023-05-23T04:42:51.735Z,16.98
2023-05-23T04:45:19.532Z,16.97
2023-05-23T04:47:46.679Z,16.98
2023-05-23T04:50:14.958Z,16.97
2023-05-23T04:52:41.642Z,16.97
2023-05-23T04:55:08.801Z,16.95
2023-05-23T04:57:35.924Z,16.93
2023-05-23T05:00:05.331Z,16.92
2023-05-23T05:02:35.309Z,16.93
2023-05-23T05:05:02.083Z,16.94
2023-05-23T05:07:29.468Z,16.93
2023-05-23T05:09:57.267Z,16.93
2023-05-23T05:12:25.150Z,16.94
2023-05-23T05:14:51.665Z,16.95
2023-05-23T05:17:19.360Z,16.93
2023-05-23T05:19:46.391Z,16.94
2023-05-23T05:22:12.926Z,16.93
2023-05-23T05:24:40.955Z,16.97
2023-05-23T05:27:09.530Z,16.98
2023-05-23T05:29:36.626Z,17.01
2023-05-23T05:32:03.480Z,17.01
2023-05-23T05:34:30.021Z,16.77
2023-05-23T05:36:56.953Z,16.83
2023-05-23T05:39:24.994Z,16.87
2023-05-23T05:41:51.519Z,16.90
2023-05-23T05:44:18.282Z,16.91
2023-05-23T05:46:45.189Z,16.92
2023-05-23T05:49:12.491Z,16.94
2023-05-23T05:51:39.299Z,16.94
2023-05-23T05:54:05.906Z,16.97
2023-05-23T05:56:32.763Z,16.96
2023-05-23T05:58:59.285Z,16.97
2023-05-23T06:01:26.811Z,16.97
2023-05-23T06:03:53.564Z,16.97
2023-05-23T06:06:20.278Z,16.98
2023-05-23T06:08:46.918Z,16.98
2023-05-23T06:11:13.555Z,16.98
2023-05-23T06:13:40.083Z,16.97
2023-05-23T06:16:07.334Z,16.97
2023-05-23T06:18:34.039Z,16.96
2023-05-23T06:21:00.878Z,16.97
2023-05-23T06:23:27.412Z,16.96
2023-05-23T06:25:54.018Z,16.96
2023-05-23T06:28:20.570Z,16.94
2023-05-23T06:30:47.096Z,16.95
2023-05-23T06:33:13.662Z,16.93
2023-05-23T06:35:40.372Z,16.92
2023-05-23T06:38:06.973Z,16.93
2023-05-23T06:40:33.529Z,16.92
2023-05-23T06:43:00.089Z,16.89
2023-05-23T06:45:26.669Z,16.91
2023-05-23T06:47:53.414Z,16.92
2023-05-23T06:50:20.194Z,16.92
2023-05-23T06:52:47.189Z,16.93
2023-05-23T06:55:18.328Z,16.93
2023-05-23T06:57:45.756Z,16.93
2023-05-23T07:00:13.826Z,16.93
2023-05-23T07:02:40.631Z,16.94
2023-05-23T07:05:07.650Z,16.94
2023-05-23T07:07:34.272Z,16.93
2023-05-23T07:10:00.897Z,16.96
2023-05-23T07:12:27.404Z,16.96
2023-05-23T07:14:53.908Z,16.95
2023-05-23T07:17:20.631Z,17.00
2023-05-23T07:19:47.416Z,17.01
2023-05-23T07:22:13.922Z,17.04
2023-05-23T07:24:40.543Z,17.08
2023-05-23T07:27:07.105Z,17.10
2023-05-23T07:29:33.628Z,17.11
2023-05-23T07:32:00.177Z,17.13
2023-05-23T07:34:26.946Z,17.13
2023-05-23T07:36:53.562Z,17.15
2023-05-23T07:39:22.287Z,17.16
2023-05-23T07:41:49.258Z,17.16
2023-05-23T07:44:16.696Z,17.16
2023-05-23T07:46:43.279Z,17.16
2023-05-23T07:49:10.004Z,17.16
2023-05-23T07:51:36.991Z,17.17
2023-05-23T07:54:03.616Z,17.17
2023-05-23T07:56:30.189Z,17.16
2023-05-23T07:58:56.792Z,17.17
2023-05-23T08:01:24.995Z,17.17
2023-05-23T08:03:51.688Z,17.14
2023-05-23T08:06:18.203Z,17.17
2023-05-23T08:08:44.744Z,17.16
2023-05-23T08:11:11.321Z,17.17
2023-05-23T08:13:37.868Z,17.16
2023-05-23T08:16:04.445Z,17.16
2023-05-23T08:18:31.160Z,17.14
2023-05-23T08:20:57.776Z,17.15
2023-05-23T08:23:24.345Z,17.14
2023-05-23T08:25:51.831Z,17.14
2023-05-23T08:28:18.414Z,17.15
2023-05-23T08:30:45.029Z,17.17
2023-05-23T08:33:11.610Z,17.16
2023-05-23T08:35:38.296Z,17.16
2023-05-23T08:38:09.859Z,17.18
2023-05-23T08:40:37.278Z,17.17
2023-05-23T08:43:04.855Z,17.18
2023-05-23T08:45:31.325Z,17.18
2023-05-23T08:48:01.084Z,17.19
2023-05-23T08:50:30.661Z,17.21
2023-05-23T08:52:59.268Z,17.21
2023-05-23T08:55:28.377Z,17.22
2023-05-23T08:57:56.302Z,17.24
2023-05-23T09:00:25.327Z,17.25
2023-05-23T09:02:52.781Z,17.26
2023-05-23T09:05:19.353Z,17.28
2023-05-23T09:07:51.716Z,17.30
2023-05-23T09:10:22.413Z,17.32
2023-05-23T09:12:49.392Z,17.34
2023-05-23T09:15:17.135Z,17.36
2023-05-23T09:17:44.968Z,17.40
2023-05-23T09:20:14.698Z,17.41
2023-05-23T09:22:45.858Z,17.43
2023-05-23T09:25:12.458Z,17.44
2023-05-23T09:27:38.997Z,17.47
2023-05-23T09:30:07.163Z,17.48
2023-05-23T09:32:33.777Z,17.49
2023-05-23T09:35:04.708Z,17.50
2023-05-23T09:37:31.396Z,17.50
2023-05-23T09:39:59.664Z,17.51
2023-05-23T09:42:26.296Z,17.51
2023-05-23T09:44:53.917Z,17.53
2023-05-23T09:47:20.636Z,17.55
2023-05-23T09:49:48.104Z,17.59
2023-05-23T09:52:14.800Z,17.61
2023-05-23T09:54:41.393Z,17.63
2023-05-23T09:57:11.197Z,17.65
2023-05-23T09:59:41.244Z,17.64
2023-05-23T10:02:17.013Z,17.67
2023-05-23T10:04:44.269Z,17.67
2023-05-23T10:07:17.286Z,17.69
2023-05-23T10:09:55.846Z,17.69
2023-05-23T10:12:44.681Z,17.71
2023-05-23T10:15:14.254Z,17.72
2023-05-23T10:18:10.114Z,17.73
2023-05-23T10:20:40.228Z,17.74
2023-05-23T10:23:07.369Z,17.75
2023-05-23T10:25:36.968Z,17.75
2023-05-23T10:28:05.020Z,17.77
2023-05-23T10:30:32.003Z,17.77
2023-05-23T10:32:59.580Z,17.79
2023-05-23T10:35:55.816Z,17.80
2023-05-23T10:38:36.729Z,17.81
2023-05-23T10:41:16.863Z,17.83
2023-05-23T10:44:05.383Z,17.83
2023-05-23T10:46:54.237Z,17.85
2023-05-23T10:49:42.016Z,17.87
2023-05-23T10:52:10.457Z,17.88
2023-05-23T10:54:41.930Z,17.89
2023-05-23T10:57:10.897Z,17.91
2023-05-23T10:59:39.306Z,17.92
2023-05-23T11:02:17.993Z,17.94
2023-05-23T11:04:45.019Z,17.96
2023-05-23T11:07:31.927Z,17.97
2023-05-23T11:10:08.480Z,17.98
2023-05-23T11:12:40.239Z,17.97
2023-05-23T11:15:27.064Z,17.98
2023-05-23T11:17:55.155Z,17.98
2023-05-23T11:20:27.193Z,17.98
2023-05-23T11:22:55.820Z,17.97
2023-05-23T11:25:40.961Z,17.99
2023-05-23T11:28:07.710Z,17.99
2023-05-23T11:30:37.324Z,17.98
2023-05-23T11:33:08.932Z,17.98
2023-05-23T11:35:36.531Z,17.99
2023-05-23T11:38:05.028Z,17.99
2023-05-23T11:40:34.163Z,18.00
2023-05-23T11:43:02.340Z,17.98
2023-05-23T11:45:31.721Z,17.99
2023-05-23T11:47:58.609Z,18.01
2023-05-23T11:50:25.363Z,18.01
2023-05-23T11:52:52.129Z,18.03
2023-05-23T11:55:22.602Z,18.04
2023-05-23T11:57:49.941Z,18.04
2023-05-23T12:00:17.239Z,18.05
2023-05-23T12:02:45.183Z,18.06
2023-05-23T12:05:14.088Z,18.06
2023-05-23T12:07:44.881Z,18.04
2023-05-23T12:10:11.798Z,18.04
2023-05-23T12:12:38.542Z,18.05
2023-05-23T12:15:05.460Z,18.07
2023-05-23T12:17:33.171Z,18.09
2023-05-23T12:20:00.023Z,18.11
2023-05-23T12:22:28.534Z,18.11
2023-05-23T12:24:56.434Z,18.14
2023-05-23T12:27:35.714Z,18.16
2023-05-23T12:30:14.411Z,18.16
2023-05-23T12:32:42.339Z,18.18
2023-05-23T12:35:10.752Z,18.18
2023-05-23T12:37:43.103Z,18.18
2023-05-23T12:40:16.663Z,18.19
2023-05-23T12:42:53.982Z,18.19
2023-05-23T12:45:30.759Z,18.21
2023-05-23T12:47:57.305Z,18.21
2023-05-23T12:50:23.858Z,18.24
2023-05-23T12:52:50.541Z,18.23
2023-05-23T12:55:17.052Z,18.25
2023-05-23T12:57:44.318Z,18.26
2023-05-23T13:00:11.779Z,18.27
2023-05-23T13:02:39.396Z,18.28
2023-05-23T13:05:06.559Z,18.28
2023-05-23T13:07:33.109Z,18.28
2023-05-23T13:09:59.763Z,18.30
2023-05-23T13:12:26.365Z,18.31
2023-05-23T13:14:53.004Z,18.31
2023-05-23T13:17:19.551Z,18.32
2023-05-23T13:19:46.417Z,18.32
2023-05-23T13:22:13.229Z,18.33
2023-05-23T13:24:40.786Z,18.33
2023-05-23T13:27:07.635Z,18.30
2023-05-23T13:29:34.508Z,18.28
2023-05-23T13:32:01.398Z,18.26
2023-05-23T13:34:28.725Z,18.27
2023-05-23T13:36:55.654Z,18.28
2023-05-23T13:39:22.878Z,18.29
2023-05-23T13:41:52.426Z,18.32
2023-05-23T13:44:18.996Z,18.31
2023-05-23T13:46:45.691Z,18.31
2023-05-23T13:49:12.379Z,18.29
2023-05-23T13:51:38.976Z,18.30
2023-05-23T13:54:06.095Z,18.29
2023-05-23T13:56:33.677Z,18.26
2023-05-23T13:59:00.523Z,18.28
2023-05-23T14:01:27.280Z,18.26
2023-05-23T14:03:54.424Z,18.27
2023-05-23T14:06:21.317Z,18.26
2023-05-23T14:08:47.839Z,18.26
2023-05-23T14:11:14.396Z,18.25
2023-05-23T14:13:40.961Z,18.26
2023-05-23T14:16:07.558Z,18.24
2023-05-23T14:18:34.091Z,18.25
2023-05-23T14:21:00.701Z,18.27
2023-05-23T14:23:27.288Z,18.29
2023-05-23T14:25:53.787Z,18.28
2023-05-23T14:28:20.362Z,18.32
2023-05-23T14:30:46.867Z,18.36
2023-05-23T14:33:13.436Z,18.39
2023-05-23T14:35:40.346Z,18.40
2023-05-23T14:38:06.995Z,18.40
2023-05-23T14:40:33.511Z,18.41
2023-05-23T14:43:00.188Z,18.41
2023-05-23T14:45:27.365Z,18.40
2023-05-23T14:47:54.033Z,18.40
2023-05-23T14:50:20.596Z,18.38
2023-05-23T14:52:47.176Z,18.37
2023-05-23T14:55:13.767Z,18.36
2023-05-23T14:57:40.358Z,18.34
2023-05-23T15:00:08.043Z,18.34
2023-05-23T15:02:35.010Z,18.32
2023-05-23T15:05:01.712Z,18.32
2023-05-23T15:07:28.269Z,18.32
2023-05-23T15:09:54.853Z,18.34
2023-05-23T15:12:21.601Z,18.33
2023-05-23T15:14:48.376Z,18.35
2023-05-23T15:17:22.970Z,18.34
2023-05-23T15:19:50.827Z,18.35
2023-05-23T15:22:34.299Z,18.34
2023-05-23T15:25:04.179Z,18.32
2023-05-23T15:27:30.726Z,18.32
2023-05-23T15:29:57.251Z,18.31
2023-05-23T15:32:24.000Z,18.31
2023-05-23T15:34:50.746Z,18.32
2023-05-23T15:37:17.965Z,18.31
2023-05-23T15:39:44.653Z,18.31
2023-05-23T15:42:11.260Z,18.31
2023-05-23T15:44:38.028Z,18.30
2023-05-23T15:47:05.214Z,18.30
2023-05-23T15:49:31.766Z,18.30
2023-05-23T15:51:58.293Z,18.28
2023-05-23T15:54:24.862Z,18.27
2023-05-23T15:56:51.369Z,18.28
2023-05-23T15:59:17.967Z,18.27
2023-05-23T16:01:44.595Z,18.26
2023-05-23T16:04:11.205Z,18.26
2023-05-23T16:06:39.085Z,18.27
2023-05-23T16:09:05.658Z,18.27
2023-05-23T16:11:32.282Z,18.27
2023-05-23T16:13:59.098Z,18.27
2023-05-23T16:16:25.850Z,18.28
2023-05-23T16:18:52.455Z,18.28
2023-05-23T16:21:20.754Z,18.28
2023-05-23T16:23:50.959Z,18.28
2023-05-23T16:26:18.714Z,18.28
2023-05-23T16:28:45.518Z,18.26
2023-05-23T16:31:16.843Z,18.25
2023-05-23T16:33:44.314Z,18.23
2023-05-23T16:36:11.047Z,18.21
2023-05-23T16:38:37.618Z,18.21
2023-05-23T16:41:04.371Z,18.17
2023-05-23T16:43:30.928Z,18.14
2023-05-23T16:45:57.557Z,18.14
2023-05-23T16:48:24.124Z,18.12
2023-05-23T16:50:50.826Z,18.11
2023-05-23T16:53:17.358Z,18.06
2023-05-23T16:55:45.478Z,18.06
2023-05-23T16:58:15.049Z,18.04
2023-05-23T17:00:41.583Z,18.02
2023-05-23T17:03:08.597Z,17.99
2023-05-23T17:05:35.392Z,17.97
2023-05-23T17:08:02.499Z,17.96
2023-05-23T17:10:29.059Z,17.95
2023-05-23T17:12:55.757Z,17.94
2023-05-23T17:15:22.336Z,17.94
2023-05-23T17:17:49.061Z,17.94
2023-05-23T17:20:15.727Z,17.93
2023-05-23T17:22:42.325Z,17.92
2023-05-23T17:25:11.272Z,17.92
2023-05-23T17:27:37.787Z,17.93
2023-05-23T17:30:05.176Z,17.92
2023-05-23T17:32:31.936Z,17.91
2023-05-23T17:34:58.697Z,17.89
2023-05-23T17:37:26.422Z,17.88
2023-05-23T17:39:54.608Z,17.88
2023-05-23T17:42:22.836Z,17.86
2023-05-23T17:44:49.404Z,17.85
2023-05-23T17:47:16.006Z,17.86
2023-05-23T17:49:42.515Z,17.87
2023-05-23T17:52:10.056Z,17.90
2023-05-23T17:54:37.751Z,17.91
2023-05-23T17:57:05.166Z,17.93
2023-05-23T17:59:32.809Z,17.94
2023-05-23T18:01:59.785Z,17.96
2023-05-23T18:04:26.424Z,17.97
2023-05-23T18:06:53.097Z,17.98
2023-05-23T18:09:19.754Z,17.96
2023-05-23T18:11:46.465Z,17.96
2023-05-23T18:14:13.041Z,17.94
2023-05-23T18:16:39.613Z,17.93
2023-05-23T18:19:06.484Z,17.91
2023-05-23T18:21:34.759Z,17.90
2023-05-23T18:24:03.669Z,17.89
2023-05-23T18:26:30.389Z,17.86
2023-05-23T18:28:56.960Z,17.86
2023-05-23T18:31:23.492Z,17.86
2023-05-23T18:33:50.044Z,17.85
2023-05-23T18:36:16.612Z,17.85
2023-05-23T18:38:43.229Z,17.83
2023-05-23T18:41:13.236Z,17.82
2023-05-23T18:43:41.235Z,17.81
2023-05-23T18:46:07.860Z,17.83
2023-05-23T18:48:35.736Z,17.81
2023-05-23T18:51:02.626Z,17.81
2023-05-23T18:53:29.191Z,17.80
2023-05-23T18:55:55.746Z,17.80
2023-05-23T18:58:22.301Z,17.79
2023-05-23T19:00:49.079Z,17.79
2023-05-23T19:03:17.012Z,17.79
2023-05-23T19:05:43.817Z,17.80
2023-05-23T19:08:10.679Z,17.80
2023-05-23T19:10:37.222Z,17.77
2023-05-23T19:13:03.957Z,17.79
2023-05-23T19:15:30.503Z,17.77
2023-05-23T19:17:57.141Z,17.77
2023-05-23T19:20:23.775Z,17.76
2023-05-23T19:22:52.156Z,17.78
2023-05-23T19:25:20.477Z,17.79
2023-05-23T19:27:47.062Z,17.80
2023-05-23T19:30:13.659Z,17.83
2023-05-23T19:32:40.423Z,17.83
2023-05-23T19:35:08.232Z,17.84
2023-05-23T19:37:34.997Z,17.85
2023-05-23T19:40:01.870Z,17.85
2023-05-23T19:42:28.516Z,17.83
2023-05-23T19:44:55.051Z,17.82
2023-05-23T19:47:21.783Z,17.82
2023-05-23T19:49:48.330Z,17.77
2023-05-23T19:52:14.955Z,17.77
2023-05-23T19:54:41.847Z,17.76
2023-05-23T19:57:08.774Z,17.75
2023-05-23T19:59:35.382Z,17.74
2023-05-23T20:02:01.943Z,17.73
2023-05-23T20:04:28.511Z,17.72
2023-05-23T20:06:56.029Z,17.67
2023-05-23T20:09:23.079Z,17.69
2023-05-23T20:11:56.798Z,17.68
2023-05-23T20:14:23.203Z,17.66
2023-05-23T20:16:49.802Z,17.65
2023-05-23T20:19:16.479Z,17.65
2023-05-23T20:21:43.049Z,17.64
2023-05-23T20:24:09.534Z,17.64
2023-05-23T20:26:36.078Z,17.65
2023-05-23T20:29:02.618Z,17.65
2023-05-23T20:31:29.341Z,17.64
2023-05-23T20:33:55.907Z,17.64
2023-05-23T20:36:23.578Z,17.63
2023-05-23T20:38:50.383Z,17.63
2023-05-23T20:41:17.616Z,17.61
2023-05-23T20:43:45.718Z,17.58
2023-05-23T20:46:16.056Z,17.60
2023-05-23T20:48:42.651Z,17.61
2023-05-23T20:51:09.265Z,17.59
2023-05-23T20:53:36.049Z,17.58
2023-05-23T20:56:03.492Z,17.58
2023-05-23T20:58:30.852Z,17.58
2023-05-23T21:00:58.637Z,17.57
2023-05-23T21:03:25.603Z,17.58
2023-05-23T21:05:52.240Z,17.59
2023-05-23T21:08:18.830Z,17.61
2023-05-23T21:10:49.344Z,17.63
2023-05-23T21:13:18.144Z,17.67
2023-05-23T21:15:44.870Z,17.68
2023-05-23T21:18:11.531Z,17.69
2023-05-23T21:20:38.130Z,17.69
2023-05-23T21:23:04.756Z,17.69
2023-05-23T21:25:31.297Z,17.68
2023-05-23T21:27:57.820Z,17.67
2023-05-23T21:30:26.166Z,17.66
2023-05-23T21:32:53.072Z,17.64
2023-05-23T21:35:19.689Z,17.63
2023-05-23T21:37:46.394Z,17.63
2023-05-23T21:40:12.958Z,17.62
2023-05-23T21:42:39.515Z,17.61
2023-05-23T21:45:06.781Z,17.61
2023-05-23T21:47:33.392Z,17.59
2023-05-23T21:49:59.969Z,17.59
2023-05-23T21:52:26.490Z,17.58
2023-05-23T21:54:52.990Z,17.59
2023-05-23T21:57:19.515Z,17.56
2023-05-23T21:59:46.076Z,17.57
2023-05-23T22:02:12.661Z,17.56
2023-05-23T22:04:39.313Z,17.57
2023-05-23T22:07:06.080Z,17.56
2023-05-23T22:09:32.651Z,17.56
2023-05-23T22:11:59.154Z,17.54
2023-05-23T22:14:25.850Z,17.53
2023-05-23T22:16:52.431Z,17.52
2023-05-23T22:19:21.061Z,17.50
2023-05-23T22:21:47.887Z,17.51
2023-05-23T22:24:14.469Z,17.52
2023-05-23T22:26:41.140Z,17.52
2023-05-23T22:29:07.913Z,17.52
2023-05-23T22:31:35.542Z,17.51
2023-05-23T22:34:02.245Z,17.51
2023-05-23T22:36:28.861Z,17.50
2023-05-23T22:38:56.110Z,17.49
2023-05-23T22:41:23.438Z,17.49
2023-05-23T22:43:50.124Z,17.50
2023-05-23T22:46:16.796Z,17.53
2023-05-23T22:48:43.339Z,17.52
2023-05-23T22:51:12.455Z,17.54
2023-05-23T22:53:39.025Z,17.56
2023-05-23T22:56:05.617Z,17.57
2023-05-23T22:58:32.180Z,17.58
2023-05-23T23:00:58.751Z,17.60
2023-05-23T23:03:25.335Z,17.59
2023-05-23T23:05:51.852Z,17.57
2023-05-23T23:08:19.449Z,17.54
2023-05-23T23:10:46.190Z,17.54
2023-05-23T23:13:14.080Z,17.54
2023-05-23T23:15:42.737Z,17.53
2023-05-23T23:18:09.579Z,17.51
2023-05-23T23:20:36.571Z,17.51
2023-05-23T23:23:03.316Z,17.48
2023-05-23T23:25:30.376Z,17.48
2023-05-23T23:27:57.069Z,17.47
2023-05-23T23:30:23.584Z,17.46
2023-05-23T23:32:50.142Z,17.46
2023-05-23T23:35:16.849Z,17.46
2023-05-23T23:37:43.450Z,17.46
2023-05-23T23:40:10.686Z,17.43
2023-05-23T23:42:37.265Z,17.43
2023-05-23T23:45:04.715Z,17.42
2023-05-23T23:47:32.541Z,17.43
2023-05-23T23:49:59.168Z,17.42
2023-05-23T23:52:26.064Z,17.42
2023-05-23T23:54:52.767Z,17.40
2023-05-23T23:57:19.352Z,17.40
2023-05-23T23:59:46.146Z,17.36
